sensor_id;sensor_type;location;lat;lon;timestamp;pressure;altitude;pressure_sealevel;temperature;humidity
21904;BME280;11116;51.554;7.812;2022-11-15T00:01:08;100199.16;;;8.01;100.00
21904;BME280;11116;51.554;7.812;2022-11-15T00:03:54;100198.53;;;8.08;100.00
21904;BME280;11116;51.554;7.812;2022-11-15T00:06:39;100195.66;;;8.11;100.00
21904;BME280;11116;51.554;7.812;2022-11-15T00:09:26;100199.97;;;8.12;100.00
21904;BME280;11116;51.554;7.812;2022-11-15T00:12:11;100204.41;;;8.01;100.00
21904;BME280;11116;51.554;7.812;2022-11-15T00:14:57;100199.97;;;8.01;100.00
21904;BME280;11116;51.554;7.812;2022-11-15T00:17:42;100196.28;;;8.04;100.00
21904;BME280;11116;51.554;7.812;2022-11-15T00:20:28;100204.25;;;8.13;100.00
21904;BME280;11116;51.554;7.812;2022-11-15T00:23:13;100209.03;;;8.19;100.00
21904;BME280;11116;51.554;7.812;2022-11-15T00:26:01;100207.63;;;8.15;100.00
21904;BME280;11116;51.554;7.812;2022-11-15T00:28:46;100212.38;;;8.21;100.00
21904;BME280;11116;51.554;7.812;2022-11-15T00:31:31;100211.06;;;8.16;100.00
21904;BME280;11116;51.554;7.812;2022-11-15T00:34:17;100209.84;;;8.20;100.00
21904;BME280;11116;51.554;7.812;2022-11-15T00:37:02;100208.66;;;8.24;100.00
21904;BME280;11116;51.554;7.812;2022-11-15T00:39:47;100209.84;;;8.20;100.00
21904;BME280;11116;51.554;7.812;2022-11-15T00:42:34;100210.81;;;8.19;100.00
21904;BME280;11116;51.554;7.812;2022-11-15T00:45:19;100200.19;;;8.20;100.00
21904;BME280;11116;51.554;7.812;2022-11-15T00:48:05;100209.47;;;8.24;100.00
21904;BME280;11116;51.554;7.812;2022-11-15T00:50:50;100208.66;;;8.35;100.00
21904;BME280;11116;51.554;7.812;2022-11-15T00:53:35;100207.47;;;8.28;100.00
21904;BME280;11116;51.554;7.812;2022-11-15T00:56:20;100218.00;;;8.28;100.00
21904;BME280;11116;51.554;7.812;2022-11-15T00:59:07;100220.44;;;8.51;100.00
21904;BME280;11116;51.554;7.812;2022-11-15T01:01:52;100228.19;;;8.64;100.00
21904;BME280;11116;51.554;7.812;2022-11-15T01:04:38;100247.38;;;9.28;100.00
21904;BME280;11116;51.554;7.812;2022-11-15T01:07:23;100247.53;;;9.87;100.00
21904;BME280;11116;51.554;7.812;2022-11-15T01:10:09;100234.41;;;10.46;100.00
21904;BME280;11116;51.554;7.812;2022-11-15T01:12:54;100217.84;;;10.54;100.00
21904;BME280;11116;51.554;7.812;2022-11-15T01:15:41;100212.03;;;10.79;100.00
21904;BME280;11116;51.554;7.812;2022-11-15T01:18:27;100193.41;;;10.90;100.00
21904;BME280;11116;51.554;7.812;2022-11-15T01:21:15;100181.28;;;10.97;100.00
21904;BME280;11116;51.554;7.812;2022-11-15T01:24:00;100169.25;;;11.31;100.00
21904;BME280;11116;51.554;7.812;2022-11-15T01:26:46;100137.63;;;11.40;100.00
21904;BME280;11116;51.554;7.812;2022-11-15T01:29:31;100135.03;;;11.57;100.00
21904;BME280;11116;51.554;7.812;2022-11-15T01:32:18;100129.59;;;11.59;100.00
21904;BME280;11116;51.554;7.812;2022-11-15T01:35:04;100127.72;;;11.42;100.00
21904;BME280;11116;51.554;7.812;2022-11-15T01:37:49;100115.94;;;11.36;100.00
21904;BME280;11116;51.554;7.812;2022-11-15T01:40:34;100117.44;;;11.39;100.00
21904;BME280;11116;51.554;7.812;2022-11-15T01:43:21;100118.25;;;11.49;100.00
21904;BME280;11116;51.554;7.812;2022-11-15T01:46:21;100115.44;;;11.50;100.00
21904;BME280;11116;51.554;7.812;2022-11-15T01:49:14;100108.31;;;11.60;100.00
21904;BME280;11116;51.554;7.812;2022-11-15T01:52:01;100112.22;;;11.56;100.00
21904;BME280;11116;51.554;7.812;2022-11-15T01:54:49;100100.59;;;11.67;100.00
21904;BME280;11116;51.554;7.812;2022-11-15T01:57:37;100103.81;;;11.70;100.00
21904;BME280;11116;51.554;7.812;2022-11-15T02:00:22;100098.72;;;11.86;100.00
21904;BME280;11116;51.554;7.812;2022-11-15T02:03:07;100087.22;;;11.78;100.00
21904;BME280;11116;51.554;7.812;2022-11-15T02:05:54;100086.22;;;11.79;100.00
21904;BME280;11116;51.554;7.812;2022-11-15T02:08:40;100078.88;;;11.90;100.00
21904;BME280;11116;51.554;7.812;2022-11-15T02:11:26;100073.06;;;11.87;100.00
21904;BME280;11116;51.554;7.812;2022-11-15T02:14:11;100068.91;;;11.84;100.00
21904;BME280;11116;51.554;7.812;2022-11-15T02:17:04;100068.53;;;11.79;100.00
21904;BME280;11116;51.554;7.812;2022-11-15T02:20:09;100071.50;;;11.67;100.00
21904;BME280;11116;51.554;7.812;2022-11-15T02:29:46;100069.28;;;11.35;100.00
21904;BME280;11116;51.554;7.812;2022-11-15T02:32:40;100076.28;;;11.26;100.00
21904;BME280;11116;51.554;7.812;2022-11-15T02:35:33;100073.56;;;11.18;100.00
21904;BME280;11116;51.554;7.812;2022-11-15T02:38:29;100080.91;;;11.24;100.00
21904;BME280;11116;51.554;7.812;2022-11-15T02:41:20;100075.03;;;11.30;100.00
21904;BME280;11116;51.554;7.812;2022-11-15T02:44:14;100064.84;;;11.35;100.00
21904;BME280;11116;51.554;7.812;2022-11-15T02:47:04;100071.44;;;11.31;100.00
21904;BME280;11116;51.554;7.812;2022-11-15T02:50:03;100056.28;;;11.24;100.00
21904;BME280;11116;51.554;7.812;2022-11-15T02:52:51;100058.38;;;11.20;100.00
21904;BME280;11116;51.554;7.812;2022-11-15T02:55:38;100055.34;;;11.15;100.00
21904;BME280;11116;51.554;7.812;2022-11-15T02:58:48;100070.63;;;11.21;100.00
21904;BME280;11116;51.554;7.812;2022-11-15T03:01:45;100067.25;;;11.29;100.00
21904;BME280;11116;51.554;7.812;2022-11-15T03:04:40;100068.78;;;11.31;100.00
21904;BME280;11116;51.554;7.812;2022-11-15T03:07:35;100055.28;;;11.34;100.00
21904;BME280;11116;51.554;7.812;2022-11-15T03:10:26;100064.56;;;11.39;100.00
21904;BME280;11116;51.554;7.812;2022-11-15T03:13:21;100052.41;;;11.46;100.00
21904;BME280;11116;51.554;7.812;2022-11-15T03:16:11;100058.94;;;11.51;100.00
21904;BME280;11116;51.554;7.812;2022-11-15T03:19:04;100056.88;;;11.45;100.00
21904;BME280;11116;51.554;7.812;2022-11-15T03:21:52;100058.88;;;11.61;100.00
21904;BME280;11116;51.554;7.812;2022-11-15T03:24:43;100055.00;;;11.55;100.00
21904;BME280;11116;51.554;7.812;2022-11-15T03:27:33;100059.97;;;11.58;100.00
21904;BME280;11116;51.554;7.812;2022-11-15T03:30:20;100054.41;;;11.61;100.00
21904;BME280;11116;51.554;7.812;2022-11-15T03:33:06;100060.22;;;11.74;100.00
21904;BME280;11116;51.554;7.812;2022-11-15T03:35:54;100060.34;;;11.73;100.00
21904;BME280;11116;51.554;7.812;2022-11-15T03:38:40;100068.22;;;11.82;100.00
21904;BME280;11116;51.554;7.812;2022-11-15T03:41:32;100064.63;;;11.83;100.00
21904;BME280;11116;51.554;7.812;2022-11-15T03:44:26;100061.13;;;11.83;100.00
21904;BME280;11116;51.554;7.812;2022-11-15T03:47:19;100057.19;;;11.87;100.00
21904;BME280;11116;51.554;7.812;2022-11-15T03:50:08;100061.81;;;11.85;100.00
21904;BME280;11116;51.554;7.812;2022-11-15T03:52:55;100061.13;;;11.83;100.00
21904;BME280;11116;51.554;7.812;2022-11-15T03:55:41;100052.66;;;11.79;100.00
21904;BME280;11116;51.554;7.812;2022-11-15T03:58:27;100061.13;;;11.83;100.00
21904;BME280;11116;51.554;7.812;2022-11-15T04:01:12;100060.81;;;11.86;100.00
21904;BME280;11116;51.554;7.812;2022-11-15T04:03:58;100057.19;;;11.87;100.00
21904;BME280;11116;51.554;7.812;2022-11-15T04:06:43;100053.03;;;11.84;100.00
21904;BME280;11116;51.554;7.812;2022-11-15T04:09:29;100048.56;;;11.85;100.00
21904;BME280;11116;51.554;7.812;2022-11-15T04:12:14;100051.88;;;11.87;100.00
21904;BME280;11116;51.554;7.812;2022-11-15T04:15:18;100048.56;;;11.85;100.00
21904;BME280;11116;51.554;7.812;2022-11-15T04:18:03;100047.97;;;11.91;100.00
21904;BME280;11116;51.554;7.812;2022-11-15T04:20:48;100046.09;;;11.83;100.00
21904;BME280;11116;51.554;7.812;2022-11-15T04:23:51;100048.56;;;11.85;100.00
21904;BME280;11116;51.554;7.812;2022-11-15T04:26:58;100052.28;;;11.92;100.00
21904;BME280;11116;51.554;7.812;2022-11-15T04:29:43;100042.13;;;11.87;100.00
21904;BME280;11116;51.554;7.812;2022-11-15T04:32:30;100044.94;;;11.86;100.00
21904;BME280;11116;51.554;7.812;2022-11-15T04:35:15;100037.00;;;11.86;100.00
21904;BME280;11116;51.554;7.812;2022-11-15T04:38:01;100040.03;;;11.91;100.00
21904;BME280;11116;51.554;7.812;2022-11-15T04:40:47;100047.38;;;11.97;100.00
21904;BME280;11116;51.554;7.812;2022-11-15T04:43:33;100038.88;;;11.94;100.00
21904;BME280;11116;51.554;7.812;2022-11-15T04:46:18;100033.59;;;11.94;100.00
21904;BME280;11116;51.554;7.812;2022-11-15T04:49:05;100037.69;;;11.88;100.00
21904;BME280;11116;51.554;7.812;2022-11-15T04:51:50;100031.56;;;11.87;100.00
21904;BME280;11116;51.554;7.812;2022-11-15T04:54:36;100040.19;;;11.89;100.00
21904;BME280;11116;51.554;7.812;2022-11-15T04:57:21;100046.16;;;12.09;100.00
21904;BME280;11116;51.554;7.812;2022-11-15T05:00:08;100034.56;;;12.10;100.00
21904;BME280;11116;51.554;7.812;2022-11-15T05:02:54;100034.72;;;12.09;100.00
21904;BME280;11116;51.554;7.812;2022-11-15T05:05:59;100029.44;;;12.09;100.00
21904;BME280;11116;51.554;7.812;2022-11-15T05:08:44;100030.94;;;12.11;100.00
21904;BME280;11116;51.554;7.812;2022-11-15T05:11:29;100023.47;;;12.07;100.00
21904;BME280;11116;51.554;7.812;2022-11-15T05:14:15;100023.00;;;12.11;100.00
21904;BME280;11116;51.554;7.812;2022-11-15T05:17:00;100023.53;;;12.15;100.00
21904;BME280;11116;51.554;7.812;2022-11-15T05:19:45;100014.63;;;12.16;100.00
21904;BME280;11116;51.554;7.812;2022-11-15T05:22:32;100014.47;;;12.17;100.00
21904;BME280;11116;51.554;7.812;2022-11-15T05:25:17;100015.38;;;12.08;100.00
21904;BME280;11116;51.554;7.812;2022-11-15T05:28:03;100013.88;;;12.06;100.00
21904;BME280;11116;51.554;7.812;2022-11-15T05:30:48;100021.97;;;12.04;100.00
21904;BME280;11116;51.554;7.812;2022-11-15T05:33:35;100016.59;;;11.96;100.00
21904;BME280;11116;51.554;7.812;2022-11-15T05:36:26;100022.19;;;11.93;100.00
21904;BME280;11116;51.554;7.812;2022-11-15T05:39:15;100027.78;;;11.90;100.00
21904;BME280;11116;51.554;7.812;2022-11-15T05:42:04;100028.00;;;11.97;100.00
21904;BME280;11116;51.554;7.812;2022-11-15T05:44:51;100027.16;;;11.96;100.00
21904;BME280;11116;51.554;7.812;2022-11-15T05:47:37;100011.16;;;11.98;100.00
21904;BME280;11116;51.554;7.812;2022-11-15T05:50:24;100013.31;;;12.02;100.00
21904;BME280;11116;51.554;7.812;2022-11-15T05:53:10;100013.19;;;12.04;100.00
21904;BME280;11116;51.554;7.812;2022-11-15T05:55:58;100007.72;;;12.05;100.00
21904;BME280;11116;51.554;7.812;2022-11-15T05:58:43;99998.44;;;12.01;100.00
21904;BME280;11116;51.554;7.812;2022-11-15T06:01:29;99998.75;;;12.16;100.00
21904;BME280;11116;51.554;7.812;2022-11-15T06:04:15;99998.66;;;12.08;100.00
21904;BME280;11116;51.554;7.812;2022-11-15T06:07:00;100007.59;;;12.07;100.00
21904;BME280;11116;51.554;7.812;2022-11-15T06:09:45;100007.19;;;12.02;100.00
21904;BME280;11116;51.554;7.812;2022-11-15T06:12:32;100008.44;;;12.07;100.00
21904;BME280;11116;51.554;7.812;2022-11-15T06:15:17;100009.16;;;12.17;100.00
21904;BME280;11116;51.554;7.812;2022-11-15T06:18:03;99997.19;;;12.13;100.00
21904;BME280;11116;51.554;7.812;2022-11-15T06:20:48;100006.22;;;12.03;100.00
21904;BME280;11116;51.554;7.812;2022-11-15T06:23:34;100016.69;;;12.04;100.00
21904;BME280;11116;51.554;7.812;2022-11-15T06:26:20;100016.69;;;11.86;100.00
21904;BME280;11116;51.554;7.812;2022-11-15T06:29:07;100023.16;;;11.74;100.00
21904;BME280;11116;51.554;7.812;2022-11-15T06:31:52;100022.34;;;11.74;100.00
21904;BME280;11116;51.554;7.812;2022-11-15T06:34:37;100024.09;;;11.83;100.00
21904;BME280;11116;51.554;7.812;2022-11-15T06:37:23;100026.50;;;11.76;100.00
21904;BME280;11116;51.554;7.812;2022-11-15T06:40:10;100028.75;;;11.71;100.00
21904;BME280;11116;51.554;7.812;2022-11-15T06:42:57;100024.13;;;11.73;100.00
21904;BME280;11116;51.554;7.812;2022-11-15T06:45:44;100028.50;;;11.65;100.00
21904;BME280;11116;51.554;7.812;2022-11-15T06:48:30;100035.44;;;11.66;100.00
21904;BME280;11116;51.554;7.812;2022-11-15T06:51:15;100039.91;;;11.65;100.00
21904;BME280;11116;51.554;7.812;2022-11-15T06:54:00;100038.41;;;11.63;100.00
21904;BME280;11116;51.554;7.812;2022-11-15T06:56:46;100042.38;;;11.67;100.00
21904;BME280;11116;51.554;7.812;2022-11-15T06:59:31;100040.69;;;11.75;100.00
21904;BME280;11116;51.554;7.812;2022-11-15T07:02:18;100049.09;;;11.71;100.00
21904;BME280;11116;51.554;7.812;2022-11-15T07:05:04;100054.47;;;11.79;100.00
21904;BME280;11116;51.554;7.812;2022-11-15T07:07:53;100059.94;;;11.95;100.00
21904;BME280;11116;51.554;7.812;2022-11-15T07:10:38;100059.38;;;11.92;100.00
21904;BME280;11116;51.554;7.812;2022-11-15T07:13:24;100064.47;;;12.03;100.00
21904;BME280;11116;51.554;7.812;2022-11-15T07:16:10;100054.63;;;12.13;100.00
21904;BME280;11116;51.554;7.812;2022-11-15T07:18:57;100052.72;;;12.23;100.00
21904;BME280;11116;51.554;7.812;2022-11-15T07:21:42;100054.28;;;12.33;100.00
21904;BME280;11116;51.554;7.812;2022-11-15T07:24:28;100049.78;;;12.26;100.00
21904;BME280;11116;51.554;7.812;2022-11-15T07:27:13;100054.84;;;12.19;100.00
21904;BME280;11116;51.554;7.812;2022-11-15T07:29:58;100055.75;;;12.28;100.00
21904;BME280;11116;51.554;7.812;2022-11-15T07:32:44;100051.50;;;12.35;100.00
21904;BME280;11116;51.554;7.812;2022-11-15T07:35:32;100044.97;;;12.47;100.00
21904;BME280;11116;51.554;7.812;2022-11-15T07:38:17;100036.34;;;12.45;100.00
21904;BME280;11116;51.554;7.812;2022-11-15T07:41:05;100033.34;;;12.66;100.00
21904;BME280;11116;51.554;7.812;2022-11-15T07:43:51;100044.38;;;12.53;100.00
21904;BME280;11116;51.554;7.812;2022-11-15T07:46:38;100045.22;;;12.54;100.00
21904;BME280;11116;51.554;7.812;2022-11-15T07:49:23;100043.13;;;12.65;100.00
21904;BME280;11116;51.554;7.812;2022-11-15T07:52:10;100041.28;;;12.66;100.00
21904;BME280;11116;51.554;7.812;2022-11-15T07:54:55;100037.63;;;12.59;100.00
21904;BME280;11116;51.554;7.812;2022-11-15T07:57:40;100036.22;;;12.72;100.00
21904;BME280;11116;51.554;7.812;2022-11-15T08:00:25;100035.63;;;12.61;100.00
21904;BME280;11116;51.554;7.812;2022-11-15T08:03:12;100045.22;;;12.79;100.00
21904;BME280;11116;51.554;7.812;2022-11-15T08:05:58;100046.50;;;12.75;100.00
21904;BME280;11116;51.554;7.812;2022-11-15T08:08:46;100038.41;;;12.77;100.00
21904;BME280;11116;51.554;7.812;2022-11-15T08:11:32;100034.59;;;12.79;100.00
21904;BME280;11116;51.554;7.812;2022-11-15T08:14:17;100030.59;;;12.75;100.00
21904;BME280;11116;51.554;7.812;2022-11-15T08:17:02;100029.19;;;12.63;100.00
21904;BME280;11116;51.554;7.812;2022-11-15T08:19:48;100026.44;;;12.73;100.00
21904;BME280;11116;51.554;7.812;2022-11-15T08:22:33;100022.91;;;12.64;100.00
21904;BME280;11116;51.554;7.812;2022-11-15T08:25:20;100025.34;;;12.58;100.00
21904;BME280;11116;51.554;7.812;2022-11-15T08:28:07;100018.06;;;12.60;98.70
21904;BME280;11116;51.554;7.812;2022-11-15T08:30:54;100019.78;;;12.69;97.86
21904;BME280;11116;51.554;7.812;2022-11-15T08:33:39;100021.91;;;12.91;97.72
21904;BME280;11116;51.554;7.812;2022-11-15T08:36:25;100010.59;;;12.81;96.08
21904;BME280;11116;51.554;7.812;2022-11-15T08:39:10;100014.88;;;12.74;96.50
21904;BME280;11116;51.554;7.812;2022-11-15T08:41:57;100016.69;;;12.73;96.76
21904;BME280;11116;51.554;7.812;2022-11-15T08:44:42;100010.50;;;12.98;95.82
21904;BME280;11116;51.554;7.812;2022-11-15T08:47:28;100016.38;;;12.76;95.05
21904;BME280;11116;51.554;7.812;2022-11-15T08:50:13;100006.16;;;12.89;94.61
21904;BME280;11116;51.554;7.812;2022-11-15T08:53:04;99998.72;;;12.93;93.63
21904;BME280;11116;51.554;7.812;2022-11-15T08:55:49;100001.75;;;13.06;93.08
21904;BME280;11116;51.554;7.812;2022-11-15T08:58:36;99993.38;;;13.11;91.37
21904;BME280;11116;51.554;7.812;2022-11-15T09:01:22;99997.22;;;13.24;91.69
21904;BME280;11116;51.554;7.812;2022-11-15T09:04:07;99996.44;;;13.06;91.15
21904;BME280;11116;51.554;7.812;2022-11-15T09:06:53;99992.88;;;13.15;90.20
21904;BME280;11116;51.554;7.812;2022-11-15T09:09:38;99979.66;;;13.23;89.55
21904;BME280;11116;51.554;7.812;2022-11-15T09:12:24;99980.78;;;13.21;88.89
21904;BME280;11116;51.554;7.812;2022-11-15T09:15:11;99983.97;;;13.32;88.74
21904;BME280;11116;51.554;7.812;2022-11-15T09:17:58;99974.72;;;13.28;88.61
21904;BME280;11116;51.554;7.812;2022-11-15T09:20:43;99967.41;;;13.38;86.69
21904;BME280;11116;51.554;7.812;2022-11-15T09:23:29;99969.94;;;13.48;85.76
21904;BME280;11116;51.554;7.812;2022-11-15T09:26:14;99966.09;;;13.34;85.50
21904;BME280;11116;51.554;7.812;2022-11-15T09:29:00;99965.78;;;13.37;84.68
21904;BME280;11116;51.554;7.812;2022-11-15T09:31:47;99973.91;;;13.44;84.55
21904;BME280;11116;51.554;7.812;2022-11-15T09:34:32;99964.13;;;13.52;84.25
21904;BME280;11116;51.554;7.812;2022-11-15T09:37:18;99964.16;;;13.61;83.35
21904;BME280;11116;51.554;7.812;2022-11-15T09:40:04;99976.56;;;13.44;83.91
21904;BME280;11116;51.554;7.812;2022-11-15T09:43:02;99960.81;;;13.50;82.74
21904;BME280;11116;51.554;7.812;2022-11-15T09:46:00;99964.97;;;13.45;81.90
21904;BME280;11116;51.554;7.812;2022-11-15T09:48:51;99975.75;;;13.43;83.04
21904;BME280;11116;51.554;7.812;2022-11-15T09:51:46;99967.41;;;13.38;83.24
21904;BME280;11116;51.554;7.812;2022-11-15T09:54:29;99965.59;;;13.39;83.83
21904;BME280;11116;51.554;7.812;2022-11-15T09:57:04;99958.88;;;13.77;83.22
21904;BME280;11116;51.554;7.812;2022-11-15T09:59:49;99963.66;;;13.57;84.02
21904;BME280;11116;51.554;7.812;2022-11-15T10:02:33;99962.00;;;13.56;84.17
21904;BME280;11116;51.554;7.812;2022-11-15T10:05:08;99957.38;;;13.58;83.88
21904;BME280;11116;51.554;7.812;2022-11-15T10:07:43;99949.25;;;13.84;82.63
21904;BME280;11116;51.554;7.812;2022-11-15T10:10:17;99949.91;;;13.70;81.58
21904;BME280;11116;51.554;7.812;2022-11-15T10:12:48;99955.88;;;13.88;81.91
21904;BME280;11116;51.554;7.812;2022-11-15T10:15:17;99944.09;;;13.82;80.71
21904;BME280;11116;51.554;7.812;2022-11-15T10:18:08;99954.25;;;13.87;80.27
21904;BME280;11116;51.554;7.812;2022-11-15T10:20:47;99945.28;;;13.96;79.24
21904;BME280;11116;51.554;7.812;2022-11-15T10:23:17;99940.97;;;13.95;77.28
21904;BME280;11116;51.554;7.812;2022-11-15T10:25:45;99940.47;;;13.75;76.64
21904;BME280;11116;51.554;7.812;2022-11-15T10:28:15;99939.13;;;13.87;76.67
21904;BME280;11116;51.554;7.812;2022-11-15T10:30:43;99929.78;;;14.32;76.01
21904;BME280;11116;51.554;7.812;2022-11-15T10:33:17;99945.63;;;13.93;76.58
21904;BME280;11116;51.554;7.812;2022-11-15T10:35:46;99926.03;;;14.10;75.23
21904;BME280;11116;51.554;7.812;2022-11-15T10:38:13;99916.72;;;14.06;74.52
21904;BME280;11116;51.554;7.812;2022-11-15T10:40:41;99920.22;;;13.98;75.76
21904;BME280;11116;51.554;7.812;2022-11-15T10:43:17;99911.41;;;13.98;75.49
21904;BME280;11116;51.554;7.812;2022-11-15T10:45:44;99911.56;;;14.21;75.48
21904;BME280;11116;51.554;7.812;2022-11-15T10:48:29;99897.25;;;14.30;74.95
21904;BME280;11116;51.554;7.812;2022-11-15T10:50:57;99891.91;;;14.46;74.42
21904;BME280;11116;51.554;7.812;2022-11-15T10:53:28;99882.84;;;14.24;74.50
21904;BME280;11116;51.554;7.812;2022-11-15T10:55:59;99868.56;;;14.17;74.62
21904;BME280;11116;51.554;7.812;2022-11-15T10:58:33;99868.03;;;14.30;74.80
21904;BME280;11116;51.554;7.812;2022-11-15T11:01:16;99866.19;;;14.46;75.19
21904;BME280;11116;51.554;7.812;2022-11-15T11:03:44;99867.84;;;14.47;74.48
21904;BME280;11116;51.554;7.812;2022-11-15T11:06:14;99863.94;;;14.66;73.46
21904;BME280;11116;51.554;7.812;2022-11-15T11:08:54;99868.34;;;14.51;73.50
21904;BME280;11116;51.554;7.812;2022-11-15T11:11:21;99860.25;;;14.36;72.88
21904;BME280;11116;51.554;7.812;2022-11-15T11:13:49;99854.59;;;14.78;73.06
21904;BME280;11116;51.554;7.812;2022-11-15T11:16:26;99853.75;;;14.78;71.80
21904;BME280;11116;51.554;7.812;2022-11-15T11:19:04;99851.41;;;14.83;72.86
21904;BME280;11116;51.554;7.812;2022-11-15T11:21:42;99847.25;;;14.80;72.44
21904;BME280;11116;51.554;7.812;2022-11-15T11:24:19;99845.63;;;14.79;72.75
21904;BME280;11116;51.554;7.812;2022-11-15T11:27:00;99843.75;;;15.10;71.91
21904;BME280;11116;51.554;7.812;2022-11-15T11:29:40;99834.69;;;14.74;70.81
21904;BME280;11116;51.554;7.812;2022-11-15T11:32:23;99833.41;;;14.62;70.49
21904;BME280;11116;51.554;7.812;2022-11-15T11:35:00;99834.59;;;14.59;70.48
21904;BME280;11116;51.554;7.812;2022-11-15T11:37:40;99830.06;;;14.60;70.91
21904;BME280;11116;51.554;7.812;2022-11-15T11:40:26;99834.53;;;14.67;70.39
21904;BME280;11116;51.554;7.812;2022-11-15T11:42:57;99826.47;;;14.84;70.09
21904;BME280;11116;51.554;7.812;2022-11-15T11:45:44;99820.06;;;14.70;69.14
21904;BME280;11116;51.554;7.812;2022-11-15T11:48:23;99821.16;;;14.84;69.47
21904;BME280;11116;51.554;7.812;2022-11-15T11:50:55;99815.25;;;14.74;69.28
21904;BME280;11116;51.554;7.812;2022-11-15T11:53:29;99807.69;;;14.85;69.05
21904;BME280;11116;51.554;7.812;2022-11-15T11:56:02;99805.94;;;15.00;68.65
21904;BME280;11116;51.554;7.812;2022-11-15T11:58:34;99810.69;;;14.82;69.42
21904;BME280;11116;51.554;7.812;2022-11-15T12:01:10;99803.78;;;14.96;70.36
21904;BME280;11116;51.554;7.812;2022-11-15T12:03:42;99795.59;;;14.83;70.36
21904;BME280;11116;51.554;7.812;2022-11-15T12:06:19;99800.63;;;15.00;70.47
21904;BME280;11116;51.554;7.812;2022-11-15T12:08:53;99796.22;;;15.07;70.07
21904;BME280;11116;51.554;7.812;2022-11-15T12:11:26;99791.44;;;15.25;69.19
21904;BME280;11116;51.554;7.812;2022-11-15T12:13:58;99786.75;;;15.27;69.36
21904;BME280;11116;51.554;7.812;2022-11-15T12:16:28;99781.63;;;15.26;67.32
21904;BME280;11116;51.554;7.812;2022-11-15T12:18:59;99775.84;;;15.00;66.26
21904;BME280;11116;51.554;7.812;2022-11-15T12:21:34;99773.19;;;15.22;65.34
21904;BME280;11116;51.554;7.812;2022-11-15T12:24:07;99767.44;;;15.11;64.79
21904;BME280;11116;51.554;7.812;2022-11-15T12:26:38;99766.31;;;15.28;63.55
21904;BME280;11116;51.554;7.812;2022-11-15T12:29:12;99761.47;;;15.32;63.98
21904;BME280;11116;51.554;7.812;2022-11-15T12:31:44;99757.50;;;15.27;63.52
21904;BME280;11116;51.554;7.812;2022-11-15T12:34:29;99743.19;;;15.66;62.72
21904;BME280;11116;51.554;7.812;2022-11-15T12:37:01;99746.03;;;15.50;62.64
21904;BME280;11116;51.554;7.812;2022-11-15T12:40:16;99742.00;;;15.54;61.73
21904;BME280;11116;51.554;7.812;2022-11-15T12:42:58;99751.00;;;15.30;62.10
21904;BME280;11116;51.554;7.812;2022-11-15T12:45:27;99750.47;;;14.89;62.16
21904;BME280;11116;51.554;7.812;2022-11-15T12:50:54;99740.91;;;14.80;61.48
21904;BME280;11116;51.554;7.812;2022-11-15T12:53:29;99738.44;;;14.79;61.95
21904;BME280;11116;51.554;7.812;2022-11-15T12:56:24;99736.31;;;14.97;61.82
21904;BME280;11116;51.554;7.812;2022-11-15T12:58:54;99738.25;;;15.03;61.34
21904;BME280;11116;51.554;7.812;2022-11-15T13:01:59;99735.19;;;14.91;62.13
21904;BME280;11116;51.554;7.812;2022-11-15T13:04:29;99735.41;;;15.04;61.81
21904;BME280;11116;51.554;7.812;2022-11-15T13:06:59;99726.88;;;14.94;61.76
21904;BME280;11116;51.554;7.812;2022-11-15T13:09:52;99730.66;;;14.77;61.28
21904;BME280;11116;51.554;7.812;2022-11-15T13:12:49;99722.13;;;14.82;61.96
21904;BME280;11116;51.554;7.812;2022-11-15T13:15:44;99716.38;;;14.47;62.47
21904;BME280;11116;51.554;7.812;2022-11-15T13:18:34;99720.03;;;14.46;62.47
21904;BME280;11116;51.554;7.812;2022-11-15T13:21:03;99714.09;;;14.67;62.61
21904;BME280;11116;51.554;7.812;2022-11-15T13:23:54;99712.69;;;14.56;63.17
21904;BME280;11116;51.554;7.812;2022-11-15T13:26:21;99709.97;;;14.64;62.34
21904;BME280;11116;51.554;7.812;2022-11-15T13:28:51;99708.84;;;14.82;62.73
21904;BME280;11116;51.554;7.812;2022-11-15T13:31:34;99700.50;;;14.85;62.53
21904;BME280;11116;51.554;7.812;2022-11-15T13:34:12;99699.81;;;14.68;62.78
21904;BME280;11116;51.554;7.812;2022-11-15T13:36:40;99702.50;;;14.60;62.55
21904;BME280;11116;51.554;7.812;2022-11-15T13:39:14;99693.81;;;14.66;62.67
21904;BME280;11116;51.554;7.812;2022-11-15T13:41:46;99691.88;;;14.83;62.91
21904;BME280;11116;51.554;7.812;2022-11-15T13:44:21;99699.06;;;14.51;63.40
21904;BME280;11116;51.554;7.812;2022-11-15T13:46:48;99695.13;;;14.70;63.26
21904;BME280;11116;51.554;7.812;2022-11-15T13:49:14;99697.78;;;14.47;64.19
21904;BME280;11116;51.554;7.812;2022-11-15T13:51:45;99698.78;;;14.46;64.32
21904;BME280;11116;51.554;7.812;2022-11-15T13:54:17;99689.38;;;14.36;64.68
21904;BME280;11116;51.554;7.812;2022-11-15T13:56:48;99685.25;;;14.25;64.79
21904;BME280;11116;51.554;7.812;2022-11-15T13:59:23;99680.94;;;14.24;64.98
21904;BME280;11116;51.554;7.812;2022-11-15T14:01:51;99680.81;;;14.18;65.26
21904;BME280;11116;51.554;7.812;2022-11-15T14:04:20;99679.28;;;14.23;64.95
21904;BME280;11116;51.554;7.812;2022-11-15T14:06:50;99682.69;;;14.40;65.59
21904;BME280;11116;51.554;7.812;2022-11-15T14:09:35;99675.28;;;14.58;65.45
21904;BME280;11116;51.554;7.812;2022-11-15T14:12:22;99674.38;;;14.43;65.09
21904;BME280;11116;51.554;7.812;2022-11-15T14:14:51;99670.47;;;14.23;65.59
21904;BME280;11116;51.554;7.812;2022-11-15T14:17:21;99671.72;;;14.12;65.93
21904;BME280;11116;51.554;7.812;2022-11-15T14:19:49;99673.38;;;14.13;66.32
21904;BME280;11116;51.554;7.812;2022-11-15T14:22:19;99670.59;;;14.06;67.03
21904;BME280;11116;51.554;7.812;2022-11-15T14:25:05;99663.44;;;14.07;66.93